Terminal Aerodrome Forecast
Issued by NWS Bismarck, ND

Home | Current Version | Previous Version | Text Only | Print | Product List | Glossary Off
Versions: 1 2 3 4 5 6 7 8 9 10 11 12 13 14 15 16 17

727
FTUS43 KBIS 201227 AAA
TAFISN
TAF AMD
KISN 201227Z 2012/2112 35012KT P6SM OVC003
     FM201400 36010KT P6SM BKN005
     FM201700 01010KT P6SM SCT005 BKN100
     FM201900 03009KT P6SM SCT015 SCT250
     FM210400 10006KT P6SM SKC=

USA.gov is the U.S. government's official web portal to all federal, state and local government web resources and services.